createdAt,value
2017-09-27T00:01:39.412Z,22.13
2017-09-27T00:04:07.232Z,22.40
2017-09-27T00:06:34.946Z,22.70
2017-09-27T00:09:02.951Z,22.00
2017-09-27T00:11:30.881Z,22.97
2017-09-27T00:13:58.497Z,21.10
2017-09-27T00:16:26.418Z,25.30
2017-09-27T00:18:54.151Z,22.70
2017-09-27T00:21:21.869Z,22.00
2017-09-27T00:23:49.737Z,20.80
2017-09-27T00:26:17.627Z,21.90
2017-09-27T00:28:45.177Z,22.47
2017-09-27T00:31:13.358Z,20.30
2017-09-27T00:33:41.044Z,21.03
2017-09-27T00:36:08.612Z,23.23
2017-09-27T00:38:36.218Z,19.77
2017-09-27T00:41:04.468Z,18.53
2017-09-27T00:43:32.385Z,18.70
2017-09-27T00:46:00.307Z,20.03
2017-09-27T00:48:28.018Z,18.97
2017-09-27T00:50:55.937Z,19.23
2017-09-27T00:53:23.974Z,18.70
2017-09-27T00:55:52.699Z,16.70
2017-09-27T00:58:21.630Z,16.80
2017-09-27T01:00:49.208Z,18.37
2017-09-27T01:03:16.724Z,15.80
2017-09-27T01:05:44.451Z,16.10
2017-09-27T01:08:12.853Z,16.30
2017-09-27T01:10:41.652Z,15.57
2017-09-27T01:13:09.951Z,14.17
2017-09-27T01:15:37.584Z,13.70
2017-09-27T01:18:05.485Z,14.57
2017-09-27T01:20:34.804Z,13.50
2017-09-27T01:23:02.924Z,14.57
2017-09-27T01:25:30.638Z,14.53
2017-09-27T01:27:59.617Z,13.60
2017-09-27T01:30:28.362Z,13.00
2017-09-27T01:32:56.730Z,16.47
2017-09-27T01:35:25.106Z,13.53
2017-09-27T01:37:53.749Z,12.70
2017-09-27T01:40:21.443Z,13.97
2017-09-27T01:42:49.660Z,13.83
2017-09-27T01:45:18.315Z,15.70
2017-09-27T01:47:46.778Z,16.80
2017-09-27T01:50:14.450Z,13.43
2017-09-27T01:52:41.993Z,14.87
2017-09-27T01:55:10.397Z,14.80
2017-09-27T01:57:37.975Z,16.67
2017-09-27T02:00:05.799Z,14.77
2017-09-27T02:02:33.494Z,14.03
2017-09-27T02:05:01.140Z,15.17
2017-09-27T02:07:28.958Z,12.87
2017-09-27T02:09:56.628Z,12.00
2017-09-27T02:12:24.503Z,12.37
2017-09-27T02:14:52.159Z,12.70
2017-09-27T02:17:19.778Z,15.33
2017-09-27T02:19:47.313Z,15.37
2017-09-27T02:22:15.980Z,13.13
2017-09-27T02:24:44.129Z,14.03
2017-09-27T02:27:12.287Z,13.70
2017-09-27T02:29:39.919Z,13.40
2017-09-27T02:32:12.020Z,15.27
2017-09-27T02:34:39.637Z,15.83
2017-09-27T02:37:07.298Z,16.27
2017-09-27T02:39:34.918Z,14.90
2017-09-27T02:42:02.473Z,18.90
2017-09-27T02:44:30.033Z,16.47
2017-09-27T02:46:57.537Z,19.57
2017-09-27T02:49:25.233Z,18.07
2017-09-27T02:51:53.647Z,25.57
2017-09-27T02:54:21.166Z,16.77
2017-09-27T02:56:49.036Z,18.20
2017-09-27T02:59:16.690Z,17.80
2017-09-27T03:01:46.594Z,17.53
2017-09-27T03:04:14.364Z,16.97
2017-09-27T03:06:42.097Z,16.37
2017-09-27T03:09:10.377Z,14.73
2017-09-27T03:11:37.963Z,15.27
2017-09-27T03:14:05.672Z,13.00
2017-09-27T03:16:33.311Z,15.40
2017-09-27T03:19:00.926Z,16.40
2017-09-27T03:21:29.644Z,17.07
2017-09-27T03:23:59.220Z,15.70
2017-09-27T03:26:27.664Z,13.93
2017-09-27T03:28:55.216Z,16.17
2017-09-27T03:31:22.810Z,17.00
2017-09-27T03:33:51.254Z,13.97
2017-09-27T03:36:20.696Z,13.17
2017-09-27T03:38:49.072Z,13.70
2017-09-27T03:41:16.668Z,10.60
2017-09-27T03:43:44.617Z,19.07
2017-09-27T03:46:12.667Z,25.27
2017-09-27T03:48:40.311Z,14.17
2017-09-27T03:51:07.996Z,14.20
2017-09-27T03:53:36.953Z,12.40
2017-09-27T03:56:04.666Z,11.33
2017-09-27T03:58:33.062Z,12.00
2017-09-27T04:01:01.666Z,18.33
2017-09-27T04:03:29.240Z,13.17
2017-09-27T04:05:56.804Z,15.10
2017-09-27T04:08:24.395Z,14.63
2017-09-27T04:10:51.969Z,16.93
2017-09-27T04:13:20.770Z,14.70
2017-09-27T04:15:49.772Z,17.80
2017-09-27T04:18:17.363Z,16.03
2017-09-27T04:20:44.936Z,17.33
2017-09-27T04:23:12.667Z,17.37
2017-09-27T04:25:40.393Z,18.57
2017-09-27T04:28:08.701Z,15.77
2017-09-27T04:30:36.433Z,14.77
2017-09-27T04:33:04.211Z,15.13
2017-09-27T04:35:31.864Z,16.17
2017-09-27T04:37:59.996Z,15.70
2017-09-27T04:40:28.820Z,16.73
2017-09-27T04:42:56.449Z,17.43
2017-09-27T04:45:24.814Z,18.00
2017-09-27T04:47:52.693Z,15.97
2017-09-27T04:50:20.522Z,15.90
2017-09-27T04:52:48.139Z,15.80
2017-09-27T04:55:16.113Z,12.80
2017-09-27T04:57:43.755Z,14.60
2017-09-27T05:00:11.475Z,14.47
2017-09-27T05:02:39.108Z,14.70
2017-09-27T05:05:06.876Z,17.03
2017-09-27T05:07:34.354Z,19.80
2017-09-27T05:10:01.904Z,13.93
2017-09-27T05:15:03.522Z,17.40
2017-09-27T05:17:30.995Z,22.47
2017-09-27T05:19:59.608Z,15.20
2017-09-27T05:22:27.114Z,14.80
2017-09-27T05:24:54.721Z,15.90
2017-09-27T05:27:22.278Z,14.27
2017-09-27T05:29:49.937Z,19.87
2017-09-27T05:32:17.537Z,15.97
2017-09-27T05:34:45.094Z,17.03
2017-09-27T05:37:12.611Z,15.83
2017-09-27T05:39:40.173Z,18.00
2017-09-27T05:42:07.722Z,17.90
2017-09-27T05:44:35.240Z,19.33
2017-09-27T05:47:02.957Z,18.30
2017-09-27T05:49:30.541Z,15.70
2017-09-27T05:51:59.030Z,17.57
2017-09-27T05:54:26.595Z,14.70
2017-09-27T05:56:54.125Z,16.87
2017-09-27T05:59:21.682Z,19.10
2017-09-27T06:01:49.523Z,14.40
2017-09-27T06:04:17.045Z,19.73
2017-09-27T06:06:44.593Z,17.50
2017-09-27T06:09:12.080Z,13.60
2017-09-27T06:11:40.469Z,14.93
2017-09-27T06:14:08.163Z,17.20
2017-09-27T06:16:35.721Z,15.77
2017-09-27T06:19:03.386Z,15.37
2017-09-27T06:21:31.641Z,15.30
2017-09-27T06:23:59.199Z,16.30
2017-09-27T06:26:26.709Z,15.90
2017-09-27T06:28:54.248Z,16.10
2017-09-27T06:31:21.880Z,18.60
2017-09-27T06:33:49.423Z,15.63
2017-09-27T06:36:17.058Z,14.70
2017-09-27T06:38:44.622Z,17.63
2017-09-27T06:41:12.533Z,19.60
2017-09-27T06:43:40.049Z,19.13
2017-09-27T06:46:07.692Z,15.53
2017-09-27T06:48:35.401Z,16.07
2017-09-27T06:51:02.909Z,17.10
2017-09-27T06:53:30.438Z,15.40
2017-09-27T06:55:58.136Z,16.27
2017-09-27T06:58:25.679Z,19.20
2017-09-27T07:00:53.556Z,16.73
2017-09-27T07:03:21.789Z,24.03
2017-09-27T07:05:49.435Z,16.47
2017-09-27T07:08:16.985Z,19.53
2017-09-27T07:10:44.571Z,20.20
2017-09-27T07:13:12.336Z,21.63
2017-09-27T07:15:39.895Z,21.00
2017-09-27T07:18:07.492Z,21.30
2017-09-27T07:20:35.006Z,22.93
2017-09-27T07:23:02.681Z,24.47
2017-09-27T07:25:30.250Z,26.13
2017-09-27T07:27:57.780Z,23.20
2017-09-27T07:30:25.335Z,21.73
2017-09-27T07:32:52.912Z,20.80
2017-09-27T07:35:20.495Z,23.80
2017-09-27T07:37:48.061Z,23.37
2017-09-27T07:40:16.487Z,25.00
2017-09-27T07:42:43.980Z,28.17
2017-09-27T07:45:12.451Z,24.50
2017-09-27T07:47:40.137Z,25.77
2017-09-27T07:50:07.706Z,24.03
2017-09-27T07:52:35.250Z,21.20
2017-09-27T07:55:02.728Z,20.17
2017-09-27T07:57:30.297Z,22.80
2017-09-27T07:59:57.802Z,20.97
2017-09-27T08:02:25.304Z,19.83
2017-09-27T08:04:52.797Z,23.43
2017-09-27T08:07:20.299Z,19.10
2017-09-27T08:09:48.011Z,23.30
2017-09-27T08:12:15.536Z,18.87
2017-09-27T08:14:43.059Z,19.97
2017-09-27T08:17:10.553Z,19.97
2017-09-27T08:19:38.147Z,21.60
2017-09-27T08:22:05.856Z,21.80
2017-09-27T08:24:33.375Z,22.90
2017-09-27T08:32:29.443Z,21.20
2017-09-27T08:42:15.111Z,21.10
2017-09-27T08:44:42.628Z,24.67
2017-09-27T08:47:10.153Z,19.83
2017-09-27T08:49:37.683Z,22.80
2017-09-27T08:52:05.221Z,19.07
2017-09-27T08:54:32.887Z,18.13
2017-09-27T08:57:00.553Z,20.10
2017-09-27T08:59:28.201Z,19.60
2017-09-27T09:01:55.790Z,19.50
2017-09-27T09:04:23.273Z,21.33
2017-09-27T09:06:50.808Z,20.20
2017-09-27T09:09:18.499Z,19.90
2017-09-27T09:11:46.104Z,20.90
2017-09-27T09:14:13.598Z,23.50
2017-09-27T09:16:42.113Z,21.73
2017-09-27T09:19:10.429Z,24.80
2017-09-27T09:21:37.988Z,25.80
2017-09-27T09:24:06.583Z,22.80
2017-09-27T09:26:34.247Z,22.93
2017-09-27T09:29:01.860Z,27.33
2017-09-27T09:31:29.616Z,28.43
2017-09-27T09:33:57.147Z,31.00
2017-09-27T09:36:25.012Z,25.60
2017-09-27T09:38:52.589Z,26.87
2017-09-27T09:41:20.963Z,26.47
2017-09-27T09:43:48.580Z,24.10
2017-09-27T09:46:16.119Z,25.03
2017-09-27T09:48:43.654Z,25.93
2017-09-27T09:51:12.302Z,22.83
2017-09-27T09:53:40.068Z,24.83
2017-09-27T09:56:07.592Z,25.33
2017-09-27T09:58:35.149Z,21.30
2017-09-27T10:01:03.508Z,20.40
2017-09-27T10:03:31.102Z,21.50
2017-09-27T10:05:58.623Z,21.73
2017-09-27T10:08:26.139Z,22.63
2017-09-27T10:10:54.428Z,21.00
2017-09-27T10:13:22.532Z,19.70
2017-09-27T10:15:50.153Z,21.53
2017-09-27T10:18:17.679Z,16.90
2017-09-27T10:20:45.272Z,19.17
2017-09-27T10:23:12.904Z,20.50
2017-09-27T10:25:40.456Z,19.70
2017-09-27T10:28:07.992Z,19.50
2017-09-27T10:30:35.504Z,20.00
2017-09-27T10:33:03.023Z,19.70
2017-09-27T10:35:30.680Z,19.93
2017-09-27T10:37:58.351Z,16.93
2017-09-27T10:40:25.912Z,20.73
2017-09-27T10:42:53.449Z,17.07
2017-09-27T10:45:21.045Z,18.47
2017-09-27T10:47:48.725Z,15.80
2017-09-27T10:50:16.342Z,16.97
2017-09-27T10:52:43.890Z,16.70
2017-09-27T10:55:11.403Z,17.47
2017-09-27T10:57:38.896Z,17.57
2017-09-27T11:00:06.426Z,20.57
2017-09-27T11:02:33.930Z,13.47
2017-09-27T11:05:01.709Z,15.27
2017-09-27T11:07:29.263Z,15.00
2017-09-27T11:09:57.422Z,15.77
2017-09-27T11:12:24.995Z,14.40
2017-09-27T11:14:52.535Z,15.53
2017-09-27T11:17:20.098Z,14.30
2017-09-27T11:19:47.597Z,14.00
2017-09-27T11:22:15.165Z,13.57
2017-09-27T11:24:42.693Z,16.20
2017-09-27T11:27:11.813Z,12.50
2017-09-27T11:29:39.358Z,12.20
2017-09-27T11:32:06.936Z,13.73
2017-09-27T11:34:34.492Z,13.23
2017-09-27T11:37:02.329Z,12.87
2017-09-27T11:39:30.508Z,13.27
2017-09-27T11:41:58.113Z,14.50
2017-09-27T11:44:26.240Z,13.40
2017-09-27T11:46:53.804Z,12.20
2017-09-27T11:49:21.336Z,12.30
2017-09-27T11:51:48.921Z,12.70
2017-09-27T11:54:16.491Z,15.37
2017-09-27T11:56:44.090Z,12.80
2017-09-27T11:59:11.619Z,12.20
2017-09-27T12:01:39.208Z,10.80
2017-09-27T12:04:06.739Z,11.53
2017-09-27T12:06:34.278Z,14.00
2017-09-27T12:09:01.853Z,12.03
2017-09-27T12:11:29.855Z,11.03
2017-09-27T12:16:29.553Z,10.40
2017-09-27T12:18:57.085Z,10.87
2017-09-27T12:21:24.640Z,11.20
2017-09-27T12:23:52.617Z,10.93
2017-09-27T12:26:20.176Z,10.90
2017-09-27T12:28:48.434Z,11.50
2017-09-27T12:31:16.027Z,11.70
2017-09-27T12:33:43.567Z,11.77
2017-09-27T12:36:12.043Z,10.33
2017-09-27T12:38:39.588Z,11.47
2017-09-27T12:41:07.186Z,11.07
2017-09-27T12:43:35.323Z,10.93
2017-09-27T12:46:02.853Z,9.90
2017-09-27T12:48:30.471Z,10.90
2017-09-27T12:50:58.009Z,10.90
2017-09-27T12:53:25.536Z,13.00
2017-09-27T12:55:53.141Z,12.20
2017-09-27T12:58:20.633Z,13.90
2017-09-27T13:00:48.210Z,11.77
2017-09-27T13:03:16.450Z,11.87
2017-09-27T13:05:44.402Z,13.77
2017-09-27T13:08:11.972Z,13.43
2017-09-27T13:10:40.404Z,12.07
2017-09-27T13:13:08.076Z,11.20
2017-09-27T13:15:35.838Z,13.00
2017-09-27T13:18:03.421Z,11.50
2017-09-27T13:20:31.020Z,10.73
2017-09-27T13:22:58.668Z,12.37
2017-09-27T13:25:26.212Z,10.90
2017-09-27T13:27:53.743Z,10.60
2017-09-27T13:30:21.310Z,10.20
2017-09-27T13:32:48.807Z,10.20
2017-09-27T13:35:16.615Z,9.57
2017-09-27T13:37:44.170Z,9.53
2017-09-27T13:40:11.681Z,8.90
2017-09-27T13:42:39.243Z,8.73
2017-09-27T13:45:06.782Z,10.40
2017-09-27T13:47:34.360Z,9.43
2017-09-27T13:50:01.897Z,7.97
2017-09-27T13:52:30.223Z,9.17
2017-09-27T13:54:57.850Z,9.17
2017-09-27T13:57:25.397Z,9.40
2017-09-27T13:59:53.576Z,9.20
2017-09-27T14:02:21.113Z,9.30
2017-09-27T14:04:49.173Z,8.97
2017-09-27T14:07:18.604Z,8.77
2017-09-27T14:09:46.974Z,11.50
2017-09-27T14:12:14.504Z,11.30
2017-09-27T14:14:42.071Z,8.23
2017-09-27T14:17:09.564Z,12.10
2017-09-27T14:19:37.149Z,9.50
2017-09-27T14:22:04.669Z,9.60
2017-09-27T14:24:32.238Z,8.10
2017-09-27T14:27:03.090Z,7.53
2017-09-27T14:29:30.640Z,8.90
2017-09-27T14:31:58.266Z,9.03
2017-09-27T14:34:25.858Z,8.60
2017-09-27T14:36:54.281Z,9.03
2017-09-27T14:39:21.925Z,8.70
2017-09-27T14:41:49.604Z,8.30
2017-09-27T14:44:20.297Z,8.67
2017-09-27T14:46:48.523Z,8.80
2017-09-27T14:49:16.068Z,10.67
2017-09-27T14:51:44.553Z,8.20
2017-09-27T14:54:12.140Z,9.47
2017-09-27T14:56:40.282Z,8.07
2017-09-27T14:59:07.807Z,9.00
2017-09-27T15:01:35.379Z,11.70
2017-09-27T15:04:02.897Z,8.10
2017-09-27T15:06:30.441Z,7.83
2017-09-27T15:08:59.194Z,8.97
2017-09-27T15:11:27.664Z,13.07
2017-09-27T15:13:55.197Z,11.33
2017-09-27T15:16:22.684Z,8.03
2017-09-27T15:18:50.265Z,12.00
2017-09-27T15:21:17.778Z,9.57
2017-09-27T15:23:45.378Z,8.50
2017-09-27T15:26:12.976Z,9.97
2017-09-27T15:28:40.494Z,8.37
2017-09-27T15:31:08.089Z,8.23
2017-09-27T15:33:35.604Z,8.60
2017-09-27T15:36:03.424Z,7.60
2017-09-27T15:38:31.862Z,8.30
2017-09-27T15:40:59.614Z,8.37
2017-09-27T15:43:28.784Z,10.73
2017-09-27T15:45:56.627Z,8.70
2017-09-27T15:48:24.156Z,8.00
2017-09-27T15:50:51.681Z,14.30
2017-09-27T15:53:19.353Z,8.77
2017-09-27T15:55:46.898Z,10.13
2017-09-27T15:58:14.557Z,10.00
2017-09-27T16:00:42.131Z,10.20
2017-09-27T16:03:09.632Z,8.17
2017-09-27T16:05:37.160Z,7.80
2017-09-27T16:08:04.748Z,8.40
2017-09-27T16:10:32.418Z,15.03
2017-09-27T16:12:59.940Z,8.80
2017-09-27T16:15:27.535Z,8.10
2017-09-27T16:17:55.277Z,10.83
2017-09-27T16:20:22.817Z,12.27
2017-09-27T16:22:50.376Z,12.10
2017-09-27T16:25:17.910Z,11.10
2017-09-27T16:27:45.566Z,9.83
2017-09-27T16:30:13.096Z,8.40
2017-09-27T16:32:41.570Z,9.40
2017-09-27T16:35:09.141Z,12.87
2017-09-27T16:37:36.648Z,10.13
2017-09-27T16:40:04.125Z,9.53
2017-09-27T16:42:31.984Z,8.70
2017-09-27T16:44:59.581Z,10.10
2017-09-27T16:47:27.122Z,11.27
2017-09-27T16:49:54.747Z,12.17
2017-09-27T16:52:22.599Z,10.07
2017-09-27T16:54:50.116Z,15.43
2017-09-27T16:57:17.667Z,9.63
2017-09-27T16:59:45.190Z,11.00
2017-09-27T17:02:12.728Z,9.33
2017-09-27T17:04:40.262Z,11.70
2017-09-27T17:07:07.784Z,12.57
2017-09-27T17:09:35.575Z,13.73
2017-09-27T17:12:03.065Z,17.10
2017-09-27T17:14:30.620Z,21.97
2017-09-27T17:16:58.179Z,13.57
2017-09-27T17:19:25.665Z,13.70
2017-09-27T17:21:53.161Z,14.20
2017-09-27T17:24:21.875Z,22.33
2017-09-27T17:26:49.514Z,15.43
2017-09-27T17:29:17.095Z,18.30
2017-09-27T17:31:45.524Z,17.13
2017-09-27T17:34:13.962Z,15.00
2017-09-27T17:36:43.410Z,22.73
2017-09-27T17:39:11.077Z,16.80
2017-09-27T17:41:39.319Z,17.63
2017-09-27T17:44:06.912Z,15.23
2017-09-27T17:46:35.509Z,18.73
2017-09-27T17:49:03.071Z,28.10
2017-09-27T17:51:30.647Z,21.77
2017-09-27T17:53:58.191Z,27.70
2017-09-27T17:56:25.817Z,24.10
2017-09-27T17:58:53.418Z,24.93
2017-09-27T18:01:20.955Z,23.97
2017-09-27T18:03:49.397Z,24.47
2017-09-27T18:09:34.140Z,24.60
2017-09-27T18:15:24.040Z,20.70
2017-09-27T18:18:04.802Z,25.40
2017-09-27T18:20:32.446Z,21.13
2017-09-27T18:23:00.115Z,24.90
2017-09-27T18:25:27.788Z,28.37
2017-09-27T18:27:56.087Z,25.80
2017-09-27T18:30:24.803Z,23.23
2017-09-27T18:32:52.427Z,22.17
2017-09-27T18:35:21.455Z,22.93
2017-09-27T18:37:49.034Z,24.85
2017-09-27T18:40:16.769Z,25.33
2017-09-27T18:42:45.053Z,27.30
2017-09-27T18:45:12.640Z,23.67
2017-09-27T18:47:40.702Z,22.83
2017-09-27T18:50:09.276Z,23.87
2017-09-27T18:52:37.338Z,24.47
2017-09-27T18:55:05.725Z,23.53
2017-09-27T18:57:33.333Z,27.80
2017-09-27T19:00:01.087Z,23.87
2017-09-27T19:02:28.643Z,23.73
2017-09-27T19:04:56.382Z,31.37
2017-09-27T19:07:24.006Z,23.60
2017-09-27T19:09:51.649Z,20.83
2017-09-27T19:12:19.273Z,21.97
2017-09-27T19:14:46.899Z,22.63
2017-09-27T19:17:14.452Z,27.20
2017-09-27T19:19:42.105Z,33.10
2017-09-27T19:22:09.732Z,34.20
2017-09-27T19:24:37.399Z,32.23
2017-09-27T19:27:05.654Z,30.00
2017-09-27T19:29:33.233Z,26.37
2017-09-27T19:32:00.923Z,23.70
2017-09-27T19:34:28.770Z,26.27
2017-09-27T19:36:56.384Z,26.70
2017-09-27T19:39:24.454Z,22.50
2017-09-27T19:41:52.018Z,20.07
2017-09-27T19:44:19.557Z,22.60
2017-09-27T19:46:47.112Z,21.53
2017-09-27T19:49:14.639Z,21.77
2017-09-27T19:51:43.562Z,20.53
2017-09-27T19:54:12.373Z,20.10
2017-09-27T19:56:40.000Z,19.80
2017-09-27T19:59:07.540Z,23.43
2017-09-27T20:01:38.141Z,20.03
2017-09-27T20:04:06.598Z,20.53
2017-09-27T20:06:34.937Z,23.70
2017-09-27T20:09:02.574Z,28.00
2017-09-27T20:11:30.428Z,23.70
2017-09-27T20:13:57.970Z,21.87
2017-09-27T20:16:26.364Z,25.17
2017-09-27T20:18:53.962Z,22.60
2017-09-27T20:21:22.497Z,25.53
2017-09-27T20:23:51.053Z,22.40
2017-09-27T20:26:20.017Z,23.40
2017-09-27T20:28:47.597Z,23.40
2017-09-27T20:31:15.963Z,25.93
2017-09-27T20:33:44.429Z,23.20
2017-09-27T20:36:13.257Z,20.63
2017-09-27T20:38:40.895Z,23.70
2017-09-27T20:41:09.773Z,30.93
2017-09-27T20:43:37.370Z,24.13
2017-09-27T20:46:06.729Z,24.27
2017-09-27T20:48:34.289Z,26.50
2017-09-27T20:51:03.607Z,25.03
2017-09-27T20:53:31.227Z,27.00
2017-09-27T20:55:58.976Z,24.33
2017-09-27T20:58:26.790Z,24.00
2017-09-27T21:00:55.295Z,27.07
2017-09-27T21:03:22.928Z,22.07
2017-09-27T21:05:50.990Z,28.10
2017-09-27T21:08:19.144Z,25.77
2017-09-27T21:10:46.675Z,24.77
2017-09-27T21:13:14.320Z,23.70
2017-09-27T21:15:41.941Z,24.13
2017-09-27T21:18:10.371Z,27.60
2017-09-27T21:20:38.829Z,22.40
2017-09-27T21:23:06.360Z,23.17
2017-09-27T21:25:33.958Z,24.40
2017-09-27T21:28:01.616Z,25.23
2017-09-27T21:30:31.012Z,24.10
2017-09-27T21:32:58.558Z,28.97
2017-09-27T21:35:27.002Z,24.17
2017-09-27T21:37:54.736Z,25.63
2017-09-27T21:40:22.929Z,24.20
2017-09-27T21:42:50.495Z,23.77
2017-09-27T21:45:18.876Z,22.07
2017-09-27T21:47:47.605Z,24.20
2017-09-27T21:50:15.136Z,22.80
2017-09-27T21:52:43.687Z,44.47
2017-09-27T21:55:11.732Z,41.20
2017-09-27T21:57:40.296Z,27.53
2017-09-27T22:00:08.801Z,27.53
2017-09-27T22:02:36.350Z,24.20
2017-09-27T22:05:04.008Z,23.53
2017-09-27T22:07:32.507Z,25.80
2017-09-27T22:10:00.176Z,21.80
2017-09-27T22:12:27.759Z,22.30
2017-09-27T22:14:56.522Z,25.20
2017-09-27T22:17:24.714Z,26.63
2017-09-27T22:19:52.280Z,24.90
2017-09-27T22:22:21.152Z,24.40
2017-09-27T22:24:48.739Z,23.30
2017-09-27T22:27:17.248Z,22.30
2017-09-27T22:29:44.763Z,24.87
2017-09-27T22:32:12.604Z,25.83
2017-09-27T22:34:40.764Z,27.40
2017-09-27T22:37:08.355Z,26.97
2017-09-27T22:39:36.730Z,26.77
2017-09-27T22:42:04.622Z,24.43
2017-09-27T22:44:32.353Z,25.97
2017-09-27T22:47:01.109Z,22.03
2017-09-27T22:49:29.405Z,23.70
2017-09-27T22:51:56.990Z,25.67
2017-09-27T22:54:24.849Z,25.13
2017-09-27T22:56:52.499Z,25.93
2017-09-27T22:59:20.184Z,21.70
2017-09-27T23:01:47.752Z,23.93
2017-09-27T23:04:15.357Z,32.90
2017-09-27T23:06:42.988Z,23.60
2017-09-27T23:09:11.625Z,19.27
2017-09-27T23:11:39.183Z,20.70
2017-09-27T23:14:06.761Z,20.63
2017-09-27T23:16:34.399Z,19.47
2017-09-27T23:19:02.504Z,18.03
2017-09-27T23:21:30.122Z,21.50
2017-09-27T23:24:00.046Z,18.17
2017-09-27T23:26:27.871Z,26.10
2017-09-27T23:28:56.031Z,23.00
2017-09-27T23:31:23.663Z,26.60
2017-09-27T23:33:51.217Z,22.77
2017-09-27T23:36:19.202Z,27.40
2017-09-27T23:38:47.990Z,30.83
2017-09-27T23:41:17.989Z,23.30
2017-09-27T23:43:48.295Z,25.77
2017-09-27T23:46:15.925Z,22.13
2017-09-27T23:48:43.516Z,23.73
2017-09-27T23:51:11.952Z,23.87
2017-09-27T23:53:41.211Z,22.93
2017-09-27T23:56:09.874Z,21.47
2017-09-27T23:58:38.606Z,24.53
